Airport View

Enter AWOS ICAO identifier for current METAR.

ex. KFNL

KAQR 221755Z AUTO 03009G15KT 10SM SCT023 SCT029 BKN046 28/21 A3006 RMK AO2

22 Jul 2019 18:15

Frequency: 121.125

Phone: 580-889-6924

Other Area AWOS: KDUA - KMLC - KADH - KHHW

TAF KMLC 221720Z 2218/2318 36010KT P6SM FEW018 BKN030 TEMPO 2220/2224 BKN018 FM230000 02011KT P6SM SCT035 FM230300 01006KT P6SM SCT250